sensor_id;sensor_type;location;lat;lon;timestamp;P1;durP1;ratioP1;P2;durP2;ratioP2
34317;SDS011;20582;52.196;20.952;2022-11-14T00:00:48;35.75;;;15.85;;
34317;SDS011;20582;52.196;20.952;2022-11-14T00:03:16;29.42;;;15.23;;
34317;SDS011;20582;52.196;20.952;2022-11-14T00:05:43;34.75;;;16.05;;
34317;SDS011;20582;52.196;20.952;2022-11-14T00:08:14;33.97;;;16.00;;
34317;SDS011;20582;52.196;20.952;2022-11-14T00:10:40;30.10;;;16.10;;
34317;SDS011;20582;52.196;20.952;2022-11-14T00:13:06;28.77;;;15.25;;
34317;SDS011;20582;52.196;20.952;2022-11-14T00:15:32;29.58;;;15.35;;
34317;SDS011;20582;52.196;20.952;2022-11-14T00:17:58;29.85;;;16.00;;
34317;SDS011;20582;52.196;20.952;2022-11-14T00:20:24;32.72;;;16.45;;
34317;SDS011;20582;52.196;20.952;2022-11-14T00:22:50;36.15;;;17.20;;
34317;SDS011;20582;52.196;20.952;2022-11-14T00:25:16;31.25;;;16.65;;
34317;SDS011;20582;52.196;20.952;2022-11-14T00:27:42;31.38;;;17.17;;
34317;SDS011;20582;52.196;20.952;2022-11-14T00:30:08;34.90;;;18.30;;
34317;SDS011;20582;52.196;20.952;2022-11-14T00:32:34;36.47;;;19.73;;
34317;SDS011;20582;52.196;20.952;2022-11-14T00:35:00;32.50;;;16.95;;
34317;SDS011;20582;52.196;20.952;2022-11-14T00:37:26;32.50;;;17.52;;
34317;SDS011;20582;52.196;20.952;2022-11-14T00:39:52;32.40;;;17.92;;
34317;SDS011;20582;52.196;20.952;2022-11-14T00:42:18;34.53;;;18.27;;
34317;SDS011;20582;52.196;20.952;2022-11-14T00:44:44;32.60;;;17.20;;
34317;SDS011;20582;52.196;20.952;2022-11-14T00:47:10;32.13;;;17.10;;
34317;SDS011;20582;52.196;20.952;2022-11-14T00:49:36;35.63;;;17.40;;
34317;SDS011;20582;52.196;20.952;2022-11-14T00:52:02;34.28;;;17.20;;
34317;SDS011;20582;52.196;20.952;2022-11-14T00:54:28;33.92;;;16.88;;
34317;SDS011;20582;52.196;20.952;2022-11-14T00:56:54;41.75;;;18.73;;
34317;SDS011;20582;52.196;20.952;2022-11-14T00:59:20;31.95;;;17.08;;
34317;SDS011;20582;52.196;20.952;2022-11-14T01:01:46;32.78;;;17.08;;
34317;SDS011;20582;52.196;20.952;2022-11-14T01:04:12;35.47;;;15.05;;
34317;SDS011;20582;52.196;20.952;2022-11-14T01:06:38;32.22;;;16.33;;
34317;SDS011;20582;52.196;20.952;2022-11-14T01:09:04;31.33;;;15.85;;
34317;SDS011;20582;52.196;20.952;2022-11-14T01:11:30;29.52;;;14.60;;
34317;SDS011;20582;52.196;20.952;2022-11-14T01:13:56;31.70;;;16.20;;
34317;SDS011;20582;52.196;20.952;2022-11-14T01:16:22;34.33;;;16.73;;
34317;SDS011;20582;52.196;20.952;2022-11-14T01:18:48;35.42;;;16.73;;
34317;SDS011;20582;52.196;20.952;2022-11-14T01:21:14;32.17;;;15.50;;
34317;SDS011;20582;52.196;20.952;2022-11-14T01:23:40;32.97;;;17.10;;
34317;SDS011;20582;52.196;20.952;2022-11-14T01:26:07;37.28;;;17.35;;
34317;SDS011;20582;52.196;20.952;2022-11-14T01:28:33;28.55;;;15.63;;
34317;SDS011;20582;52.196;20.952;2022-11-14T01:31:07;34.25;;;17.55;;
34317;SDS011;20582;52.196;20.952;2022-11-14T01:33:33;32.03;;;17.20;;
34317;SDS011;20582;52.196;20.952;2022-11-14T01:35:59;35.50;;;16.70;;
34317;SDS011;20582;52.196;20.952;2022-11-14T01:38:25;38.90;;;17.88;;
34317;SDS011;20582;52.196;20.952;2022-11-14T01:40:51;59.17;;;21.52;;
34317;SDS011;20582;52.196;20.952;2022-11-14T01:51:08;38.67;;;18.77;;
34317;SDS011;20582;52.196;20.952;2022-11-14T01:53:37;34.00;;;16.85;;
34317;SDS011;20582;52.196;20.952;2022-11-14T01:56:04;30.95;;;15.85;;
34317;SDS011;20582;52.196;20.952;2022-11-14T01:58:31;35.47;;;18.08;;
34317;SDS011;20582;52.196;20.952;2022-11-14T02:01:00;38.25;;;18.80;;
34317;SDS011;20582;52.196;20.952;2022-11-14T02:03:26;35.63;;;18.05;;
34317;SDS011;20582;52.196;20.952;2022-11-14T02:05:52;37.80;;;18.58;;
34317;SDS011;20582;52.196;20.952;2022-11-14T02:08:19;37.25;;;17.42;;
34317;SDS011;20582;52.196;20.952;2022-11-14T02:10:45;36.80;;;18.42;;
34317;SDS011;20582;52.196;20.952;2022-11-14T02:13:11;37.65;;;18.58;;
34317;SDS011;20582;52.196;20.952;2022-11-14T02:15:37;39.80;;;19.48;;
34317;SDS011;20582;52.196;20.952;2022-11-14T02:18:03;45.80;;;20.52;;
34317;SDS011;20582;52.196;20.952;2022-11-14T02:20:32;39.17;;;19.20;;
34317;SDS011;20582;52.196;20.952;2022-11-14T02:22:58;44.35;;;19.90;;
34317;SDS011;20582;52.196;20.952;2022-11-14T02:25:24;41.10;;;20.38;;
34317;SDS011;20582;52.196;20.952;2022-11-14T02:27:50;41.88;;;19.75;;
34317;SDS011;20582;52.196;20.952;2022-11-14T02:30:18;43.38;;;20.13;;
34317;SDS011;20582;52.196;20.952;2022-11-14T02:32:44;45.28;;;21.52;;
34317;SDS011;20582;52.196;20.952;2022-11-14T02:35:11;44.88;;;22.20;;
34317;SDS011;20582;52.196;20.952;2022-11-14T02:37:37;43.08;;;20.98;;
34317;SDS011;20582;52.196;20.952;2022-11-14T02:40:03;42.95;;;21.15;;
34317;SDS011;20582;52.196;20.952;2022-11-14T02:42:30;49.03;;;22.40;;
34317;SDS011;20582;52.196;20.952;2022-11-14T02:44:55;41.70;;;20.40;;
34317;SDS011;20582;52.196;20.952;2022-11-14T02:47:22;47.15;;;21.75;;
34317;SDS011;20582;52.196;20.952;2022-11-14T02:49:50;39.53;;;20.30;;
34317;SDS011;20582;52.196;20.952;2022-11-14T02:52:16;43.63;;;20.55;;
34317;SDS011;20582;52.196;20.952;2022-11-14T02:54:42;43.28;;;19.90;;
34317;SDS011;20582;52.196;20.952;2022-11-14T02:57:08;41.80;;;19.88;;
34317;SDS011;20582;52.196;20.952;2022-11-14T02:59:34;37.20;;;19.27;;
34317;SDS011;20582;52.196;20.952;2022-11-14T03:02:00;41.45;;;18.90;;
34317;SDS011;20582;52.196;20.952;2022-11-14T03:04:26;36.70;;;18.48;;
34317;SDS011;20582;52.196;20.952;2022-11-14T03:06:52;32.15;;;17.40;;
34317;SDS011;20582;52.196;20.952;2022-11-14T03:09:18;32.88;;;16.25;;
34317;SDS011;20582;52.196;20.952;2022-11-14T03:11:44;35.75;;;17.27;;
34317;SDS011;20582;52.196;20.952;2022-11-14T03:14:10;32.20;;;16.52;;
34317;SDS011;20582;52.196;20.952;2022-11-14T03:16:36;34.22;;;16.65;;
34317;SDS011;20582;52.196;20.952;2022-11-14T03:19:02;31.75;;;16.40;;
34317;SDS011;20582;52.196;20.952;2022-11-14T03:21:28;36.63;;;18.42;;
34317;SDS011;20582;52.196;20.952;2022-11-14T03:23:54;33.33;;;16.35;;
34317;SDS011;20582;52.196;20.952;2022-11-14T03:26:20;31.13;;;17.42;;
34317;SDS011;20582;52.196;20.952;2022-11-14T03:28:46;34.60;;;17.23;;
34317;SDS011;20582;52.196;20.952;2022-11-14T03:31:13;32.42;;;15.52;;
34317;SDS011;20582;52.196;20.952;2022-11-14T03:33:39;37.78;;;17.73;;
34317;SDS011;20582;52.196;20.952;2022-11-14T03:36:05;35.45;;;16.85;;
34317;SDS011;20582;52.196;20.952;2022-11-14T03:38:32;34.35;;;18.02;;
34317;SDS011;20582;52.196;20.952;2022-11-14T03:40:58;37.63;;;19.00;;
34317;SDS011;20582;52.196;20.952;2022-11-14T03:43:24;45.70;;;23.45;;
34317;SDS011;20582;52.196;20.952;2022-11-14T03:45:51;42.15;;;19.85;;
34317;SDS011;20582;52.196;20.952;2022-11-14T03:48:17;45.95;;;20.27;;
34317;SDS011;20582;52.196;20.952;2022-11-14T03:50:43;38.30;;;18.67;;
34317;SDS011;20582;52.196;20.952;2022-11-14T03:53:09;34.17;;;17.27;;
34317;SDS011;20582;52.196;20.952;2022-11-14T03:55:35;35.28;;;17.50;;
34317;SDS011;20582;52.196;20.952;2022-11-14T03:58:02;36.25;;;18.15;;
34317;SDS011;20582;52.196;20.952;2022-11-14T04:00:28;40.08;;;18.33;;
34317;SDS011;20582;52.196;20.952;2022-11-14T04:02:55;34.08;;;17.75;;
34317;SDS011;20582;52.196;20.952;2022-11-14T04:05:21;33.08;;;16.55;;
34317;SDS011;20582;52.196;20.952;2022-11-14T04:07:47;34.70;;;16.83;;
34317;SDS011;20582;52.196;20.952;2022-11-14T04:10:13;32.58;;;16.35;;
34317;SDS011;20582;52.196;20.952;2022-11-14T04:12:39;32.50;;;16.13;;
34317;SDS011;20582;52.196;20.952;2022-11-14T04:15:06;32.05;;;15.30;;
34317;SDS011;20582;52.196;20.952;2022-11-14T04:17:32;33.13;;;15.75;;
34317;SDS011;20582;52.196;20.952;2022-11-14T04:19:58;27.48;;;14.48;;
34317;SDS011;20582;52.196;20.952;2022-11-14T04:22:24;30.55;;;14.85;;
34317;SDS011;20582;52.196;20.952;2022-11-14T04:24:50;26.67;;;14.68;;
34317;SDS011;20582;52.196;20.952;2022-11-14T04:27:16;26.02;;;13.77;;
34317;SDS011;20582;52.196;20.952;2022-11-14T04:29:41;26.30;;;14.10;;
34317;SDS011;20582;52.196;20.952;2022-11-14T04:32:07;22.27;;;12.40;;
34317;SDS011;20582;52.196;20.952;2022-11-14T04:34:33;25.02;;;12.32;;
34317;SDS011;20582;52.196;20.952;2022-11-14T04:36:59;23.50;;;11.32;;
34317;SDS011;20582;52.196;20.952;2022-11-14T04:39:25;22.17;;;11.85;;
34317;SDS011;20582;52.196;20.952;2022-11-14T04:41:51;21.75;;;11.98;;
34317;SDS011;20582;52.196;20.952;2022-11-14T04:44:17;19.70;;;12.02;;
34317;SDS011;20582;52.196;20.952;2022-11-14T04:46:43;24.35;;;11.75;;
34317;SDS011;20582;52.196;20.952;2022-11-14T04:49:09;24.08;;;12.23;;
34317;SDS011;20582;52.196;20.952;2022-11-14T04:51:35;23.63;;;12.70;;
34317;SDS011;20582;52.196;20.952;2022-11-14T04:54:01;21.05;;;11.98;;
34317;SDS011;20582;52.196;20.952;2022-11-14T04:56:27;19.23;;;10.27;;
34317;SDS011;20582;52.196;20.952;2022-11-14T04:58:53;19.73;;;11.38;;
34317;SDS011;20582;52.196;20.952;2022-11-14T05:01:19;20.58;;;11.45;;
34317;SDS011;20582;52.196;20.952;2022-11-14T05:03:45;19.17;;;10.43;;
34317;SDS011;20582;52.196;20.952;2022-11-14T05:06:11;19.88;;;11.05;;
34317;SDS011;20582;52.196;20.952;2022-11-14T05:08:37;17.85;;;10.10;;
34317;SDS011;20582;52.196;20.952;2022-11-14T05:11:03;17.40;;;9.18;;
34317;SDS011;20582;52.196;20.952;2022-11-14T05:13:29;18.13;;;10.80;;
34317;SDS011;20582;52.196;20.952;2022-11-14T05:15:58;17.23;;;9.27;;
34317;SDS011;20582;52.196;20.952;2022-11-14T05:18:24;18.08;;;10.23;;
34317;SDS011;20582;52.196;20.952;2022-11-14T05:20:50;19.30;;;9.88;;
34317;SDS011;20582;52.196;20.952;2022-11-14T05:23:20;19.15;;;10.75;;
34317;SDS011;20582;52.196;20.952;2022-11-14T05:25:46;19.08;;;10.15;;
34317;SDS011;20582;52.196;20.952;2022-11-14T05:28:12;19.90;;;10.68;;
34317;SDS011;20582;52.196;20.952;2022-11-14T05:30:38;20.83;;;10.77;;
34317;SDS011;20582;52.196;20.952;2022-11-14T05:33:04;20.27;;;10.85;;
34317;SDS011;20582;52.196;20.952;2022-11-14T05:35:30;20.60;;;11.48;;
34317;SDS011;20582;52.196;20.952;2022-11-14T05:37:56;19.60;;;10.43;;
34317;SDS011;20582;52.196;20.952;2022-11-14T05:40:25;18.05;;;10.05;;
34317;SDS011;20582;52.196;20.952;2022-11-14T05:42:53;20.40;;;10.82;;
34317;SDS011;20582;52.196;20.952;2022-11-14T05:45:19;20.77;;;10.93;;
34317;SDS011;20582;52.196;20.952;2022-11-14T05:47:45;19.83;;;10.55;;
34317;SDS011;20582;52.196;20.952;2022-11-14T05:50:11;19.48;;;11.52;;
34317;SDS011;20582;52.196;20.952;2022-11-14T05:52:37;21.10;;;11.15;;
34317;SDS011;20582;52.196;20.952;2022-11-14T05:55:03;22.35;;;12.68;;
34317;SDS011;20582;52.196;20.952;2022-11-14T05:57:29;19.55;;;12.18;;
34317;SDS011;20582;52.196;20.952;2022-11-14T05:59:55;19.95;;;11.60;;
34317;SDS011;20582;52.196;20.952;2022-11-14T06:02:22;18.52;;;11.10;;
34317;SDS011;20582;52.196;20.952;2022-11-14T06:04:48;20.38;;;11.40;;
34317;SDS011;20582;52.196;20.952;2022-11-14T06:07:13;20.08;;;11.02;;
34317;SDS011;20582;52.196;20.952;2022-11-14T06:09:40;19.25;;;11.23;;
34317;SDS011;20582;52.196;20.952;2022-11-14T06:12:05;19.55;;;10.57;;
34317;SDS011;20582;52.196;20.952;2022-11-14T06:14:32;22.27;;;10.48;;
34317;SDS011;20582;52.196;20.952;2022-11-14T06:16:58;18.67;;;10.25;;
34317;SDS011;20582;52.196;20.952;2022-11-14T06:19:24;19.65;;;10.45;;
34317;SDS011;20582;52.196;20.952;2022-11-14T06:21:50;19.38;;;10.90;;
34317;SDS011;20582;52.196;20.952;2022-11-14T06:24:16;19.15;;;9.48;;
34317;SDS011;20582;52.196;20.952;2022-11-14T06:26:42;19.17;;;10.73;;
34317;SDS011;20582;52.196;20.952;2022-11-14T06:29:08;16.98;;;9.40;;
34317;SDS011;20582;52.196;20.952;2022-11-14T06:31:34;18.65;;;9.23;;
34317;SDS011;20582;52.196;20.952;2022-11-14T06:34:00;19.73;;;9.70;;
34317;SDS011;20582;52.196;20.952;2022-11-14T06:36:26;18.08;;;9.68;;
34317;SDS011;20582;52.196;20.952;2022-11-14T06:38:54;17.65;;;9.45;;
34317;SDS011;20582;52.196;20.952;2022-11-14T06:41:20;17.63;;;9.63;;
34317;SDS011;20582;52.196;20.952;2022-11-14T06:43:47;20.35;;;9.80;;
34317;SDS011;20582;52.196;20.952;2022-11-14T06:46:14;20.67;;;9.80;;
34317;SDS011;20582;52.196;20.952;2022-11-14T06:48:41;19.63;;;9.70;;
34317;SDS011;20582;52.196;20.952;2022-11-14T06:51:08;18.05;;;10.07;;
34317;SDS011;20582;52.196;20.952;2022-11-14T06:53:35;19.52;;;10.45;;
34317;SDS011;20582;52.196;20.952;2022-11-14T06:58:31;19.48;;;10.23;;
34317;SDS011;20582;52.196;20.952;2022-11-14T07:03:33;19.25;;;9.55;;
34317;SDS011;20582;52.196;20.952;2022-11-14T07:06:02;16.85;;;10.43;;
34317;SDS011;20582;52.196;20.952;2022-11-14T07:08:29;18.25;;;10.30;;
34317;SDS011;20582;52.196;20.952;2022-11-14T07:11:02;16.50;;;9.73;;
34317;SDS011;20582;52.196;20.952;2022-11-14T07:13:28;17.48;;;10.07;;
34317;SDS011;20582;52.196;20.952;2022-11-14T07:15:55;17.35;;;8.85;;
34317;SDS011;20582;52.196;20.952;2022-11-14T07:18:21;17.77;;;9.27;;
34317;SDS011;20582;52.196;20.952;2022-11-14T07:20:47;15.43;;;9.10;;
34317;SDS011;20582;52.196;20.952;2022-11-14T07:23:13;15.05;;;7.80;;
34317;SDS011;20582;52.196;20.952;2022-11-14T07:25:40;15.85;;;8.25;;
34317;SDS011;20582;52.196;20.952;2022-11-14T07:28:06;15.77;;;8.90;;
34317;SDS011;20582;52.196;20.952;2022-11-14T07:30:32;13.68;;;7.75;;
34317;SDS011;20582;52.196;20.952;2022-11-14T07:32:59;16.77;;;8.68;;
34317;SDS011;20582;52.196;20.952;2022-11-14T07:35:25;15.63;;;8.93;;
34317;SDS011;20582;52.196;20.952;2022-11-14T07:37:51;14.57;;;8.15;;
34317;SDS011;20582;52.196;20.952;2022-11-14T07:40:17;16.23;;;7.47;;
34317;SDS011;20582;52.196;20.952;2022-11-14T07:42:43;13.63;;;6.85;;
34317;SDS011;20582;52.196;20.952;2022-11-14T07:45:09;15.25;;;8.15;;
34317;SDS011;20582;52.196;20.952;2022-11-14T07:47:36;13.63;;;8.27;;
34317;SDS011;20582;52.196;20.952;2022-11-14T07:50:02;13.45;;;7.13;;
34317;SDS011;20582;52.196;20.952;2022-11-14T07:52:28;12.23;;;7.07;;
34317;SDS011;20582;52.196;20.952;2022-11-14T07:54:55;13.93;;;7.80;;
34317;SDS011;20582;52.196;20.952;2022-11-14T07:57:21;14.57;;;7.28;;
34317;SDS011;20582;52.196;20.952;2022-11-14T07:59:47;13.35;;;7.65;;
34317;SDS011;20582;52.196;20.952;2022-11-14T08:02:13;13.10;;;7.28;;
34317;SDS011;20582;52.196;20.952;2022-11-14T08:04:40;14.32;;;7.82;;
34317;SDS011;20582;52.196;20.952;2022-11-14T08:07:06;12.60;;;7.35;;
34317;SDS011;20582;52.196;20.952;2022-11-14T08:09:32;15.05;;;7.25;;
34317;SDS011;20582;52.196;20.952;2022-11-14T08:11:58;12.77;;;7.25;;
34317;SDS011;20582;52.196;20.952;2022-11-14T08:14:24;13.02;;;7.10;;
34317;SDS011;20582;52.196;20.952;2022-11-14T08:16:50;11.85;;;7.35;;
34317;SDS011;20582;52.196;20.952;2022-11-14T08:19:16;13.50;;;7.65;;
34317;SDS011;20582;52.196;20.952;2022-11-14T08:21:43;15.07;;;8.13;;
34317;SDS011;20582;52.196;20.952;2022-11-14T08:24:09;15.70;;;7.90;;
34317;SDS011;20582;52.196;20.952;2022-11-14T08:26:35;14.02;;;8.75;;
34317;SDS011;20582;52.196;20.952;2022-11-14T08:29:01;12.90;;;7.90;;
34317;SDS011;20582;52.196;20.952;2022-11-14T08:31:27;13.07;;;6.82;;
34317;SDS011;20582;52.196;20.952;2022-11-14T08:33:53;14.10;;;7.32;;
34317;SDS011;20582;52.196;20.952;2022-11-14T08:36:19;14.82;;;7.32;;
34317;SDS011;20582;52.196;20.952;2022-11-14T08:38:45;12.60;;;6.57;;
34317;SDS011;20582;52.196;20.952;2022-11-14T08:41:11;15.40;;;7.60;;
34317;SDS011;20582;52.196;20.952;2022-11-14T08:43:38;13.73;;;7.10;;
34317;SDS011;20582;52.196;20.952;2022-11-14T08:46:04;11.25;;;6.50;;
34317;SDS011;20582;52.196;20.952;2022-11-14T08:48:30;12.00;;;6.00;;
34317;SDS011;20582;52.196;20.952;2022-11-14T08:50:57;10.20;;;5.28;;
34317;SDS011;20582;52.196;20.952;2022-11-14T08:53:26;11.05;;;5.30;;
34317;SDS011;20582;52.196;20.952;2022-11-14T08:55:52;12.48;;;6.75;;
34317;SDS011;20582;52.196;20.952;2022-11-14T08:58:18;11.32;;;6.80;;
34317;SDS011;20582;52.196;20.952;2022-11-14T09:00:44;10.95;;;6.75;;
34317;SDS011;20582;52.196;20.952;2022-11-14T09:03:10;12.88;;;7.30;;
34317;SDS011;20582;52.196;20.952;2022-11-14T09:05:40;13.55;;;8.40;;
34317;SDS011;20582;52.196;20.952;2022-11-14T09:08:06;14.50;;;8.70;;
34317;SDS011;20582;52.196;20.952;2022-11-14T09:10:32;14.35;;;9.43;;
34317;SDS011;20582;52.196;20.952;2022-11-14T09:12:59;17.90;;;10.32;;
34317;SDS011;20582;52.196;20.952;2022-11-14T09:15:26;15.40;;;10.05;;
34317;SDS011;20582;52.196;20.952;2022-11-14T09:17:53;15.80;;;9.35;;
34317;SDS011;20582;52.196;20.952;2022-11-14T09:20:19;15.50;;;9.30;;
34317;SDS011;20582;52.196;20.952;2022-11-14T09:22:45;15.48;;;10.00;;
34317;SDS011;20582;52.196;20.952;2022-11-14T09:25:11;15.52;;;9.45;;
34317;SDS011;20582;52.196;20.952;2022-11-14T09:27:37;14.10;;;8.63;;
34317;SDS011;20582;52.196;20.952;2022-11-14T09:30:03;14.95;;;9.90;;
34317;SDS011;20582;52.196;20.952;2022-11-14T09:32:29;13.00;;;7.97;;
34317;SDS011;20582;52.196;20.952;2022-11-14T09:34:55;15.93;;;9.88;;
34317;SDS011;20582;52.196;20.952;2022-11-14T09:37:21;16.27;;;9.32;;
34317;SDS011;20582;52.196;20.952;2022-11-14T09:39:47;14.30;;;8.77;;
34317;SDS011;20582;52.196;20.952;2022-11-14T09:44:59;15.75;;;9.35;;
34317;SDS011;20582;52.196;20.952;2022-11-14T09:47:32;19.80;;;10.63;;
34317;SDS011;20582;52.196;20.952;2022-11-14T09:50:04;16.63;;;9.93;;
34317;SDS011;20582;52.196;20.952;2022-11-14T09:52:34;14.80;;;9.68;;
34317;SDS011;20582;52.196;20.952;2022-11-14T09:55:02;11.75;;;7.20;;
34317;SDS011;20582;52.196;20.952;2022-11-14T09:57:28;12.48;;;7.70;;
34317;SDS011;20582;52.196;20.952;2022-11-14T09:59:55;11.70;;;7.05;;
34317;SDS011;20582;52.196;20.952;2022-11-14T10:17:52;16.30;;;9.02;;
34317;SDS011;20582;52.196;20.952;2022-11-14T10:20:43;14.77;;;8.93;;
34317;SDS011;20582;52.196;20.952;2022-11-14T10:28:19;13.82;;;8.52;;
34317;SDS011;20582;52.196;20.952;2022-11-14T10:30:59;17.08;;;9.23;;
34317;SDS011;20582;52.196;20.952;2022-11-14T10:38:39;15.13;;;8.23;;
34317;SDS011;20582;52.196;20.952;2022-11-14T10:41:06;15.50;;;8.35;;
34317;SDS011;20582;52.196;20.952;2022-11-14T10:43:35;16.35;;;8.82;;
34317;SDS011;20582;52.196;20.952;2022-11-14T10:46:04;16.23;;;9.00;;
34317;SDS011;20582;52.196;20.952;2022-11-14T10:48:35;17.17;;;9.65;;
34317;SDS011;20582;52.196;20.952;2022-11-14T10:56:14;19.23;;;10.27;;
34317;SDS011;20582;52.196;20.952;2022-11-14T10:58:40;21.73;;;11.60;;
34317;SDS011;20582;52.196;20.952;2022-11-14T11:03:51;20.48;;;11.80;;
34317;SDS011;20582;52.196;20.952;2022-11-14T11:06:23;17.92;;;10.52;;
34317;SDS011;20582;52.196;20.952;2022-11-14T11:08:50;19.55;;;11.20;;
34317;SDS011;20582;52.196;20.952;2022-11-14T11:11:37;16.55;;;10.05;;
34317;SDS011;20582;52.196;20.952;2022-11-14T11:14:03;28.05;;;15.23;;
34317;SDS011;20582;52.196;20.952;2022-11-14T11:16:30;22.05;;;11.38;;
34317;SDS011;20582;52.196;20.952;2022-11-14T11:19:21;20.20;;;11.15;;
34317;SDS011;20582;52.196;20.952;2022-11-14T11:21:48;15.93;;;9.55;;
34317;SDS011;20582;52.196;20.952;2022-11-14T11:29:21;15.48;;;9.43;;
34317;SDS011;20582;52.196;20.952;2022-11-14T11:34:13;13.15;;;7.30;;
34317;SDS011;20582;52.196;20.952;2022-11-14T11:36:40;11.88;;;6.78;;
34317;SDS011;20582;52.196;20.952;2022-11-14T11:39:08;12.65;;;7.43;;
34317;SDS011;20582;52.196;20.952;2022-11-14T11:41:38;10.77;;;6.80;;
34317;SDS011;20582;52.196;20.952;2022-11-14T11:44:06;10.00;;;6.80;;
34317;SDS011;20582;52.196;20.952;2022-11-14T11:46:46;9.77;;;5.90;;
34317;SDS011;20582;52.196;20.952;2022-11-14T11:49:15;11.75;;;6.32;;
34317;SDS011;20582;52.196;20.952;2022-11-14T11:54:35;10.73;;;6.03;;
34317;SDS011;20582;52.196;20.952;2022-11-14T11:59:32;13.30;;;6.50;;
34317;SDS011;20582;52.196;20.952;2022-11-14T12:02:10;14.05;;;6.85;;
34317;SDS011;20582;52.196;20.952;2022-11-14T12:04:38;13.07;;;7.85;;
34317;SDS011;20582;52.196;20.952;2022-11-14T12:07:18;16.10;;;8.50;;
34317;SDS011;20582;52.196;20.952;2022-11-14T12:09:44;12.75;;;7.95;;
34317;SDS011;20582;52.196;20.952;2022-11-14T12:15:00;19.20;;;11.40;;
34317;SDS011;20582;52.196;20.952;2022-11-14T12:17:35;22.90;;;13.27;;
34317;SDS011;20582;52.196;20.952;2022-11-14T12:20:14;24.08;;;14.27;;
34317;SDS011;20582;52.196;20.952;2022-11-14T12:23:00;25.13;;;14.90;;
34317;SDS011;20582;52.196;20.952;2022-11-14T12:28:05;39.55;;;18.65;;
34317;SDS011;20582;52.196;20.952;2022-11-14T12:30:33;35.15;;;20.15;;
34317;SDS011;20582;52.196;20.952;2022-11-14T12:35:57;35.10;;;19.02;;
34317;SDS011;20582;52.196;20.952;2022-11-14T12:38:23;30.98;;;17.33;;
34317;SDS011;20582;52.196;20.952;2022-11-14T12:40:55;30.88;;;17.60;;
34317;SDS011;20582;52.196;20.952;2022-11-14T12:43:31;27.52;;;16.33;;
34317;SDS011;20582;52.196;20.952;2022-11-14T12:45:58;27.30;;;15.65;;
34317;SDS011;20582;52.196;20.952;2022-11-14T12:50:51;31.65;;;17.67;;
34317;SDS011;20582;52.196;20.952;2022-11-14T13:04:00;50.53;;;22.08;;
34317;SDS011;20582;52.196;20.952;2022-11-14T13:11:48;48.75;;;20.48;;
34317;SDS011;20582;52.196;20.952;2022-11-14T13:15:16;49.03;;;21.67;;
34317;SDS011;20582;52.196;20.952;2022-11-14T13:17:46;49.13;;;21.50;;
34317;SDS011;20582;52.196;20.952;2022-11-14T13:20:45;45.60;;;20.92;;
34317;SDS011;20582;52.196;20.952;2022-11-14T13:26:51;44.35;;;20.90;;
34317;SDS011;20582;52.196;20.952;2022-11-14T13:28:51;43.63;;;21.85;;
34317;SDS011;20582;52.196;20.952;2022-11-14T13:31:19;46.63;;;24.30;;
34317;SDS011;20582;52.196;20.952;2022-11-14T13:33:48;51.38;;;26.15;;
34317;SDS011;20582;52.196;20.952;2022-11-14T13:38:51;52.60;;;25.73;;
34317;SDS011;20582;52.196;20.952;2022-11-14T13:41:27;48.60;;;24.80;;
34317;SDS011;20582;52.196;20.952;2022-11-14T13:49:30;59.42;;;29.42;;
34317;SDS011;20582;52.196;20.952;2022-11-14T13:51:57;62.13;;;31.33;;
34317;SDS011;20582;52.196;20.952;2022-11-14T13:54:23;60.55;;;30.52;;
34317;SDS011;20582;52.196;20.952;2022-11-14T13:59:34;47.55;;;25.33;;
34317;SDS011;20582;52.196;20.952;2022-11-14T14:09:42;45.17;;;22.17;;
34317;SDS011;20582;52.196;20.952;2022-11-14T14:12:31;39.78;;;21.25;;
34317;SDS011;20582;52.196;20.952;2022-11-14T14:15:24;42.35;;;23.27;;
34317;SDS011;20582;52.196;20.952;2022-11-14T14:20:43;39.95;;;21.27;;
34317;SDS011;20582;52.196;20.952;2022-11-14T14:30:28;33.17;;;18.63;;
34317;SDS011;20582;52.196;20.952;2022-11-14T14:33:08;32.63;;;18.33;;
34317;SDS011;20582;52.196;20.952;2022-11-14T14:38:01;33.22;;;17.42;;
34317;SDS011;20582;52.196;20.952;2022-11-14T14:40:28;29.65;;;16.50;;
34317;SDS011;20582;52.196;20.952;2022-11-14T14:42:57;28.25;;;16.20;;
34317;SDS011;20582;52.196;20.952;2022-11-14T14:45:23;26.05;;;15.00;;
34317;SDS011;20582;52.196;20.952;2022-11-14T14:48:03;26.80;;;15.05;;
34317;SDS011;20582;52.196;20.952;2022-11-14T14:50:37;26.02;;;15.55;;
34317;SDS011;20582;52.196;20.952;2022-11-14T14:53:04;26.85;;;15.60;;
34317;SDS011;20582;52.196;20.952;2022-11-14T14:55:31;25.77;;;15.38;;
34317;SDS011;20582;52.196;20.952;2022-11-14T15:00:52;24.67;;;15.82;;
34317;SDS011;20582;52.196;20.952;2022-11-14T15:03:18;25.25;;;15.77;;
34317;SDS011;20582;52.196;20.952;2022-11-14T15:05:45;26.77;;;16.50;;
34317;SDS011;20582;52.196;20.952;2022-11-14T15:08:11;26.67;;;15.30;;
34317;SDS011;20582;52.196;20.952;2022-11-14T15:10:38;26.30;;;16.27;;
34317;SDS011;20582;52.196;20.952;2022-11-14T15:13:05;30.17;;;16.50;;
34317;SDS011;20582;52.196;20.952;2022-11-14T15:15:33;28.27;;;16.33;;
34317;SDS011;20582;52.196;20.952;2022-11-14T15:17:59;26.58;;;15.10;;
34317;SDS011;20582;52.196;20.952;2022-11-14T15:20:29;24.92;;;15.20;;
34317;SDS011;20582;52.196;20.952;2022-11-14T15:23:28;22.25;;;14.27;;
34317;SDS011;20582;52.196;20.952;2022-11-14T15:25:47;21.30;;;13.35;;
34317;SDS011;20582;52.196;20.952;2022-11-14T15:28:19;27.27;;;13.35;;
34317;SDS011;20582;52.196;20.952;2022-11-14T15:30:58;22.05;;;13.27;;
34317;SDS011;20582;52.196;20.952;2022-11-14T15:33:29;22.42;;;13.52;;
34317;SDS011;20582;52.196;20.952;2022-11-14T15:36:08;22.52;;;14.65;;
34317;SDS011;20582;52.196;20.952;2022-11-14T15:38:35;24.85;;;14.88;;
34317;SDS011;20582;52.196;20.952;2022-11-14T15:41:08;26.98;;;16.80;;
34317;SDS011;20582;52.196;20.952;2022-11-14T15:43:35;26.50;;;16.15;;
34317;SDS011;20582;52.196;20.952;2022-11-14T15:46:22;29.45;;;18.17;;
34317;SDS011;20582;52.196;20.952;2022-11-14T15:48:49;29.67;;;17.35;;
34317;SDS011;20582;52.196;20.952;2022-11-14T15:51:15;25.15;;;15.52;;
34317;SDS011;20582;52.196;20.952;2022-11-14T15:53:42;28.17;;;16.65;;
34317;SDS011;20582;52.196;20.952;2022-11-14T15:56:10;27.42;;;16.83;;
34317;SDS011;20582;52.196;20.952;2022-11-14T15:58:37;30.23;;;16.60;;
34317;SDS011;20582;52.196;20.952;2022-11-14T16:01:03;25.45;;;15.05;;
34317;SDS011;20582;52.196;20.952;2022-11-14T16:03:29;25.85;;;15.32;;
34317;SDS011;20582;52.196;20.952;2022-11-14T16:05:55;26.35;;;15.27;;
34317;SDS011;20582;52.196;20.952;2022-11-14T16:08:20;26.52;;;14.82;;
34317;SDS011;20582;52.196;20.952;2022-11-14T16:10:46;24.33;;;13.80;;
34317;SDS011;20582;52.196;20.952;2022-11-14T16:13:12;28.02;;;16.38;;
34317;SDS011;20582;52.196;20.952;2022-11-14T16:15:38;28.55;;;15.55;;
34317;SDS011;20582;52.196;20.952;2022-11-14T16:18:04;26.38;;;14.68;;
34317;SDS011;20582;52.196;20.952;2022-11-14T16:20:31;26.00;;;15.18;;
34317;SDS011;20582;52.196;20.952;2022-11-14T16:23:01;26.65;;;15.20;;